Felipe Pacheco

Recruteur - Grêmio
19 Août 2027
Jeudi
Processus

Personnalité

Adaptabilité (20) Ambition (2) Controverse (10) Loyauté (12) Pression (15) Professionnalisme (19) Sportivité (14) Tempérament (11)

Profil

Style d'entraînement Démocratique
Diplôme National A
Détermination 13
Gestion des joueurs 8
Motivation 11
Discipline 9
Satisfaction professionnelle
100%
Fatigue
0%
Rôle Recruteur
Salaire 109.3K p/s
Contrat 14.03.2030

Performance

Comportement Bon
Efficacité de l'entraînement
65%
Développement des joueurs
35%
Prévention des blessures
40%
Mise en place tactique
70%

Événements récents

A participé à une réunion de recrutement maintenant
A évalué un joueur 7j
A participé à une réunion de recrutement 7j
A recommandé une cible de transfert 7j
A participé à une réunion de recrutement 7j
A évalué un joueur 7j
A évalué un joueur 7j
A évalué un joueur 7j

Suivi en cours

149
Joueur Club Statut Capacité Confiance Observé Dernière observation Dernier vote
Curtis Jones Inter Actif 162 / 164 40% 8 15.08.2027 -
Mateo Mendoza Godoy Cruz Actif 128 / 125 40% 1 15.08.2027 -
Fikayo Tomori AC Milan Actif 155 / 158 40% 1 15.08.2027 -
Manu Koné AS Roma Actif 168 / 166 40% 4 12.08.2027 Plus d'infos
Alessio Romagnoli Lazio Actif 151 / 148 40% 1 12.08.2027 -
Adrià Altimira Deportivo La Coruña Actif 138 / 131 40% 1 12.08.2027 -
Oumar Solet Udinese Actif 152 / 152 40% 1 11.08.2027 -
Josh Doig Sassuolo Actif 141 / 137 40% 1 11.08.2027 -
Adam Wharton Crystal Palace Actif 157 / 159 40% 1 09.08.2027 -
Christos Mouzakitis Hull City Actif 137 / 148 40% 1 09.08.2027 -
Dara O'Shea Ipswich Town Actif 141 / 141 40% 2 07.08.2027 -
Tyler Adams Bournemouth Actif 158 / 157 40% 3 07.08.2027 -
Sven Botman Newcastle United Actif 163 / 166 40% 2 07.08.2027 -
Ethan Galbraith Swansea City Actif 138 / 131 40% 3 06.08.2027 -
Mats Wieffer Brighton Actif 152 / 153 40% 1 06.08.2027 -
Saša Lukić Ipswich Town Actif 146 / 140 40% 2 04.08.2027 -
Callum Brittain Middlesbrough Actif 135 / 132 40% 4 04.08.2027 -
Toby Collyer West Bromwich Albion Actif 137 / 144 40% 1 04.08.2027 -
Boubacar Kamara Aston Villa Actif 167 / 162 40% 4 02.08.2027 -
Imrân Louza Watford Actif 135 / 130 40% 1 02.08.2027 -
Óscar Mingueza Crystal Palace Actif 154 / 150 40% 4 19.07.2027 -
Ryan Sessegnon Fulham Actif 149 / 152 40% 4 19.07.2027 -
Jhosefer ABC Actif 109 / 109 95% 1 01.06.2027 Approuver
Florentino Luís Ipswich Town Actif 142 / 139 40% 2 30.05.2027 -
Morgan Whittaker Middlesbrough Actif 133 / 131 40% 6 28.05.2027 -
Kevin Fulham Actif 151 / 145 40% 3 28.05.2027 -
Scott Twine Bristol City Actif 127 / 128 40% 1 28.05.2027 -
Marco Asensio Fenerbahce Actif 158 / 149 40% 3 26.05.2027 Observer
Francisco Conceição Juventus Actif 160 / 158 40% 2 26.05.2027 -
Georginio Rutter Brighton Actif 149 / 154 40% 2 26.05.2027 -
Jack Rudoni Coventry City Actif 136 / 128 40% 3 24.05.2027 -
Giacomo Raspadori Atalanta Actif 149 / 148 40% 6 24.05.2027 -
Jacob Ramsey Newcastle United Actif 153 / 148 40% 2 24.05.2027 -
Amadou Onana Aston Villa Actif 156 / 159 40% 2 21.05.2027 -
Hector Ramirez Newcastle United Actif 153 / 156 40% 1 21.05.2027 Plus d'infos
Adrien Truffert Bournemouth Actif 150 / 154 40% 2 19.05.2027 -
Andrey Oeste Actif 103 / 103 30% 1 / 1m 19.05.2027 -
Wellerson Sampaio Correa Actif 101 / 101 30% 1 / 1m 19.05.2027 -
Dango Ouattara Brentford Actif 148 / 140 40% 4 18.05.2027 -
Xavi Simons Tottenham Actif 159 / 159 40% 4 17.05.2027 -
Callum Hudson-Odoi Nottingham Forest Actif 152 / 149 40% 1 16.05.2027 -
Ousmane Diomande Nottingham Forest Actif 152 / 160 40% 2 15.05.2027 -
Yehor Yarmoliuk Brentford Actif 148 / 154 40% 2 15.05.2027 -
Kenny Tete Fulham Actif 143 / 139 40% 1 15.05.2027 -
Kenan Yıldız Juventus Actif 163 / 163 40% 1 10.05.2027 -
Matías Soulé AS Roma Actif 157 / 159 40% 1 10.05.2027 -
Quinten Timber Crystal Palace Actif 151 / 147 40% 1 09.05.2027 -
Léo Scienza Southampton Actif 139 / 136 40% 1 08.05.2027 -
Derry Murkin Derby County Actif 127 / 126 40% 2 07.05.2027 -
Nordi Mukiele Sunderland Actif 145 / 146 40% 1 07.05.2027 -
Tom Fellows Southampton Actif 134 / 129 40% 11 06.05.2027 -
Finn Azaz Southampton Actif 130 / 122 40% 4 04.05.2027 -
Harry Wilson Leeds United Actif 144 / 138 40% 1 04.05.2027 -
Mikkel Damsgaard Brentford Actif 147 / 144 40% 2 03.05.2027 -
Carlos Vicente Birmingham Actif 145 / 140 40% 2 02.05.2027 Plus d'infos
Othmane Maamma Watford Actif 126 / 134 40% 1 01.05.2027 -
Jan Paul van Hecke Tottenham Actif 159 / 160 40% 1 30.04.2027 -
Anton Stach Leeds United Actif 150 / 148 40% 2 29.04.2027 -
Kiernan Dewsbury-Hall Everton Actif 153 / 148 40% 1 29.04.2027 -
Welington Southampton Actif 133 / 129 40% 1 29.04.2027 -
Nico González Newcastle United Actif 162 / 156 40% 2 28.04.2027 Plus d'infos
Manuel Locatelli Juventus Actif 154 / 153 40% 1 26.04.2027 -
Mario Dorgeles Braga Actif 136 / 133 40% 9 25.04.2027 -
Pau Víctor AVS Actif 141 / 137 40% 5 25.04.2027 -
Ricardo Horta Braga Actif 151 / 145 40% 5 25.04.2027 -
William Gomes Porto Actif 142 / 151 40% 4 24.04.2027 -
Renato Sanches AVS Actif 132 / 130 40% 2 22.04.2027 -
Víctor Gómez Braga Actif 142 / 137 40% 8 20.04.2027 -
Rodrigo Zalazar Sporting CP Actif 152 / 153 40% 2 20.04.2027 -
Samu Vitoria Guimaraes Actif 130 / 124 40% 4 15.04.2027 -
Diego Lainez Tigres Actif 132 / 131 40% 5 13.04.2027 -
Iván Fresneda Sporting CP Actif 142 / 147 40% 6 12.04.2027 -
Luís Guilherme Sporting CP Actif 130 / 134 40% 2 12.04.2027 -
Ozziel Herrera Tigres Actif 131 / 132 40% 5 12.04.2027 -
Francisco Moura Lusitânia Lourosa Actif 141 / 139 40% 9 11.04.2027 -
Shea Charles Southampton Actif 135 / 141 40% 2 11.04.2027 -
Kyle Walker-Peters West Ham United Actif 137 / 140 40% 1 10.04.2027 -
Lee Hyun-Ju Arouca Actif 123 / 117 40% 7 09.04.2027 -
Alejandro Zendejas Club America Actif 142 / 143 40% 2 09.04.2027 -
Gianluca Prestianni Benfica Actif 136 / 143 40% 3 09.04.2027 -
Telmo Arcanjo Vitoria Guimaraes Actif 125 / 120 40% 1 09.04.2027 -
Alfonso Trezza Arouca Actif 124 / 125 40% 1 08.04.2027 -
Gabri Martínez Braga Actif 130 / 137 40% 6 04.04.2027 -
Luis Quintero Torreense Actif 125 / 124 40% 4 04.04.2027 -
Juninho Pumas UNAM Actif 131 / 131 40% 3 03.04.2027 -
Jesús Ricardo Angulo Toluca Actif 135 / 128 40% 8 02.04.2027 -
Fredrik Aursnes Benfica Actif 151 / 150 40% 1 31.03.2027 -
Pepê Porto Actif 147 / 138 40% 3 28.03.2027 -
Luís Esteves Atlas Actif 130 / 131 40% 4 28.03.2027 -
Isaiah Jones Luton Town Actif 126 / 126 40% 1 28.03.2027 -
Valery Académico de Viseu Actif 126 / 121 40% 1 28.03.2027 -
Nuno Santos Sporting CP Actif 139 / 133 40% 5 24.03.2027 -
Víctor Dávila Club America Actif 129 / 129 40% 2 24.03.2027 -
Paulo Moreira Farense Actif 125 / 124 40% 2 22.03.2027 -
Bosun Lawal Stoke City Actif 129 / 125 40% 1 22.03.2027 -
Alan Varela Porto Actif 145 / 146 40% 6 19.03.2027 -
Alberto Costa Porto Actif 144 / 139 40% 14 18.03.2027 -
Gabriel Veron Porto Actif 128 / 129 40% 1 18.03.2027 -
Soungoutou Magassa West Ham United Actif 133 / 138 40% 1 14.03.2027 -
Lewis Ferguson Bologna Actif 145 / 141 40% 1 14.03.2027 -
Erick Sánchez OGC Nice Actif 142 / 145 40% 2 13.03.2027 -
Agustín Palavecino Cruz Azul Actif 139 / 134 40% 1 09.03.2027 -
André Silva Tondela Actif 129 / 122 40% 4 08.03.2027 -
Gonçalo Inácio Sporting CP Actif 147 / 148 40% 6 07.03.2027 -
Gustaf Lagerbielke Braga Actif 137 / 138 40% 2 07.03.2027 -
Aidan Morris Middlesbrough Actif 132 / 126 40% 1 07.03.2027 -
Rodrigo Pinheiro Famalicao Actif 127 / 132 40% 6 03.03.2027 -
Santi García Gil Vicente Actif 132 / 135 40% 9 03.03.2027 -
João Palhinha Benfica Actif 150 / 151 40% 2 01.03.2027 -
Derensili Sanches Fernandes Huddersfield Town Actif 125 / 127 40% 2 26.02.2027 -
Callum Doyle Wrexham Actif 130 / 131 40% 1 23.02.2027 -
Félix Lemaréchal Club Brugge Actif 137 / 132 40% 2 21.02.2027 -
Gustavo Silva Vitoria Guimaraes Actif 125 / 118 40% 1 21.02.2027 -
Heorhii Sudakov Benfica Actif 147 / 142 40% 4 20.02.2027 -
Brian Rodríguez Club America Actif 130 / 130 40% 1 11.02.2027 -
Lewis Morgan SuperSport United Actif 127 / 121 40% 2 07.02.2027 -
Christian Krasnodar Actif 137 / 128 40% 1 06.02.2027 -
Samuel Lino Flamengo Actif 140 / 142 40% 4 04.02.2027 -
Dodi Lukébakio Benfica Actif 146 / 141 40% 1 03.02.2027 -
Jordan Holsgrove Estoril Praia Actif 127 / 136 40% 2 25.01.2027 -
Rafik Guitane Estoril Praia Actif 129 / 136 40% 2 25.01.2027 -
João Simões Sporting CP Actif 127 / 138 40% 1 20.01.2027 -
Figueiredo Alverca Actif 125 / 133 40% 3 19.01.2027 -
Henry Mosquera Bragantino Actif 133 / 125 40% 2 15.01.2027 -
Bright Arrey-Mbi Braga Actif 131 / 130 40% 1 29.11.2026 -
Matheuzinho Corinthians Actif 129 / 127 40% 2 24.11.2026 -
Sergi Altimira Sporting CP Actif 140 / 138 40% 3 22.11.2026 -
Tomás Araújo Benfica Actif 149 / 149 40% 1 19.11.2026 -
Lucas Piton Vasco da Gama Actif 129 / 125 40% 3 16.11.2026 -
Mathias De Amorim Famalicao Actif 128 / 131 40% 1 16.11.2026 -
Zeno Debast Sporting CP Actif 145 / 141 40% 3 15.11.2026 -
Lukáš Červ Viktoria Plzen Actif 132 / 136 40% 1 14.11.2026 -
Victor Froholdt Porto Actif 147 / 164 40% 1 07.11.2026 -
Adalberto Carrasquilla Pumas UNAM Actif 128 / 124 40% 2 01.11.2026 -
Vitinho Botafogo Actif 130 / 133 40% 1 28.10.2026 -
Leandro Lozano Boca Juniors Actif 127 / 127 40% 1 28.10.2026 -
Matheus Bidu Corinthians Actif 127 / 130 40% 2 23.10.2026 -
Caio Alexandre Bahia Actif 134 / 135 40% 3 15.10.2026 -
Dinis Pinto Moreirense Actif 128 / 124 40% 3 15.10.2026 -
Facundo Mura Inter Miami CF Actif 127 / 126 40% 2 05.10.2026 -
Aníbal Moreno River Plate Actif 134 / 130 40% 1 05.10.2026 -
Nicolás Romero Minnesota United FC Actif 125 / 132 40% 1 27.09.2026 -
Kevin Álvarez Club America Actif 135 / 134 40% 1 23.09.2026 -
Emerson Royal Flamengo Actif 136 / 128 40% 1 19.09.2026 -
Chico Kim Mirassol Actif 124 / 124 30% 1 / 1m 19.08.2026 -
Erick Vitória Actif 132 / 132 52% 1 / 1m 19.08.2026 -
Jader Santa Clara Actif 114 / 117 42% 1 / 1m 12.08.2026 -
Brais Méndez Columbus Crew Actif 148 / 143 40% 1 05.08.2026 -
Pablo Rosario Porto Actif 138 / 143 40% 1 04.08.2026 -